CW1084 Weather Reports


Display with metric or nautical units.
time (UTC)temp
F
wind
direction
speed
MPH
gust
MPH
rain 1hr
in
rain 24hr
in
rain mn
in
humidity
%
barometer
mb
20260904045243 81 109 0.0 0.0 0.13 0.13 0.13 100 1013.5
20260904044734 82 107 0.0 4.0 0.09 0.09 0.10 100 1013.5
20260904044239 83 107 0.0 4.0 0.09 0.09 0.09 100 1012.7
20260904043718 83 110 0.0 4.0 0.08 0.08 0.08 100 1012.7
20260904043211 84 250 0.0 0.0 0.04 0.04 0.04 100 1013.6
20260904042707 83 265 0.0 5.0 0.00 0.00 0.00 100 1013.9
20260904042207 83 265 2.0 13.0 0.00 0.00 0.00 100 1013.8
20260904041708 84 254 2.0 13.0 0.00 0.00 0.00 100 1012.9
20260904041207 85 249 3.0 12.0 0.00 0.00 0.00 100 1012.4
20260904040701 86 244 3.0 12.0 0.00 0.00 0.00 100 1012.2
20260904040153 85 255 2.0 11.0 0.00 0.00 0.00 100 1012.1
20260904035651 84 214 1.0 9.0 0.00 0.00 0.00 100 1011.7
20260904035423 84 257 1.0 9.0 0.00 0.00 0.00 100 1011.7
20260904034642 84 215 0.0 0.0 0.00 0.00 0.00 100 1011.6
20260904034144 84 215 0.0 0.0 0.00 0.00 0.00 100 1011.2
20260904033640 84 215 0.0 0.0 0.00 0.00 0.00 100 1011.3
20260904033132 84 215 0.0 0.0 0.00 0.00 0.00 100 1011.6
20260904032613 84 215 0.0 0.0 0.00 0.00 0.00 100 1011.5
20260904032110 84 215 0.0 0.0 0.00 0.00 0.00 100 1011.7
20260904031606 84 215 0.0 0.0 0.00 0.00 0.00 100 1011.9
20260904031323 84 215 0.0 0.0 0.00 0.00 0.00 100 1011.9
20260904030549 84 215 0.0 0.0 0.00 0.00 0.00 100 1011.9
20260904030053 84 215 0.0 0.0 0.00 0.00 0.00 100 1012.0
20260904025802 84 215 0.0 0.0 0.00 0.00 0.00 100 1011.9
20260904025024 84 215 0.0 0.0 0.00 0.00 0.00 100 1012.0
20260904024512 84 215 0.0 0.0 0.00 0.00 0.00 100 1012.2
20260904024012 84 215 0.0 0.0 0.00 0.00 0.00 100 1012.2
20260904023501 84 215 0.0 0.0 0.00 0.00 0.00 100 1012.2
20260904022952 85 215 0.0 0.0 0.00 0.00 0.00 100 1012.3
20260904022431 85 215 0.0 0.0 0.00 0.00 0.00 100 1012.3
20260904021922 85 215 0.0 0.0 0.00 0.00 0.00 100 1012.3
20260904021411 85 215 0.0 0.0 0.00 0.00 0.00 100 1012.2
20260904020910 85 215 0.0 0.0 0.00 0.00 0.00 100 1012.1
20260904020408 85 215 0.0 0.0 0.00 0.00 0.00 100 1012.1
20260904015910 85 215 0.0 0.0 0.00 0.00 0.00 100 1012.0
20260904015353 85 215 0.0 0.0 0.00 0.00 0.00 100 1012.1
20260904014848 85 215 0.0 0.0 0.00 0.00 0.00 100 1012.2
20260904014556 85 215 0.0 0.0 0.00 0.00 0.00 100 1012.3
20260904013833 86 215 0.0 0.0 0.00 0.00 0.00 100 1012.4
20260904013325 86 215 0.0 0.0 0.00 0.00 0.00 100 1012.3
20260904012813 86 215 0.0 0.0 0.00 0.00 0.00 100 1012.5
20260904012306 86 215 0.0 0.0 0.00 0.00 0.00 100 1012.7
20260904011810 86 215 0.0 0.0 0.00 0.00 0.00 100 1012.8
20260904011304 86 215 0.0 0.0 0.00 0.00 0.00 100 1012.8
20260904010755 86 215 0.0 0.0 0.00 0.00 0.00 100 1013.0
20260904010244 87 215 0.0 0.0 0.00 0.00 0.00 100 1013.1
20260904005729 87 215 0.0 0.0 0.00 0.00 0.00 100 1013.2
20260904005224 87 215 0.0 0.0 0.00 0.00 0.00 100 1013.2
20260904004715 87 215 0.0 0.0 0.00 0.00 0.00 100 1013.1
20260904004210 87 215 0.0 0.0 0.00 0.00 0.00 100 1013.2
20260904003910 88 215 0.0 0.0 0.00 0.00 0.00 100 1013.1
20260904003137 88 215 0.0 0.0 0.00 0.00 0.00 100 1013.1
20260904002623 88 215 0.0 0.0 0.00 0.00 0.00 100 1013.1
20260904002113 88 215 0.0 0.0 0.00 0.00 0.00 100 1012.9
20260904001559 89 215 0.0 0.0 0.00 0.00 0.00 100 1012.9
20260904001102 89 215 0.0 0.0 0.00 0.00 0.00 100 1012.8
20260904000558 89 215 0.0 0.0 0.00 0.00 0.00 100 1012.7
20260904000347 89 215 0.0 0.0 0.00 0.00 0.00 100 1012.5
20260903235808 89 215 0.0 0.0 0.00 0.00 0.00 100 1012.5
20260903235042 89 215 0.0 0.0 0.00 0.00 0.00 100 1012.4
20260903234532 89 215 0.0 0.0 0.00 0.00 0.00 100 1012.3
20260903234308 89 215 0.0 0.0 0.00 0.00 0.00 100 1012.2
20260903233537 89 215 0.0 0.0 0.00 0.00 0.00 100 1012.2
20260903233016 89 215 0.0 0.0 0.00 0.00 0.00 100 1012.2
20260903232520 89 215 0.0 0.0 0.00 0.00 0.00 100 1012.2
20260903232013 89 215 0.0 0.0 0.00 0.00 0.00 100 1012.3
20260903231515 89 215 0.0 0.0 0.00 0.00 0.00 100 1012.2
20260903231016 89 215 0.0 0.0 0.00 0.00 0.00 100 1012.2
20260903230507 89 215 0.0 0.0 0.00 0.00 0.00 100 1012.1
20260903230001 89 215 0.0 0.0 0.00 0.00 0.00 100 1012.1
20260903225458 89 215 0.0 0.0 0.00 0.00 0.00 100 1012.1
20260903224951 89 215 0.0 0.0 0.00 0.00 0.00 100 1012.1
20260903224447 89 215 0.0 0.0 0.00 0.00 0.00 100 1012.0
20260903224208 89 215 0.0 0.0 0.00 0.00 0.00 100 1011.9
20260903223645 90 215 0.0 0.0 0.00 0.00 0.00 100 1012.0
20260903222921 90 215 0.0 0.0 0.00 0.00 0.00 100 1012.0
20260903222652 90 215 0.0 0.0 0.00 0.00 0.00 100 1012.0
20260903221906 91 215 0.0 0.0 0.00 0.00 0.00 100 1012.1
20260903221409 91 215 0.0 0.0 0.00 0.00 0.00 100 1012.1
20260903220903 91 215 0.0 0.0 0.00 0.00 0.00 100 1012.2
20260903220354 92 215 0.0 0.0 0.00 0.00 0.00 100 1012.2
20260903220114 92 215 0.0 0.0 0.00 0.00 0.00 100 1012.2
20260903215342 92 215 0.0 0.0 0.00 0.00 0.00 100 1012.2
20260903214836 92 215 0.0 0.0 0.00 0.00 0.00 100 1012.2
20260903214544 92 215 0.0 0.0 0.00 0.00 0.00 100 1012.2
20260903213803 92 215 0.0 0.0 0.00 0.00 0.00 100 1012.2
20260903213525 93 215 0.0 0.0 0.00 0.00 0.00 100 1012.2
20260903212807 93 215 0.0 0.0 0.00 0.00 0.00 100 1012.3
20260903212300 93 215 0.0 0.0 0.00 0.00 0.00 100 1012.3
20260903211812 93 215 0.0 0.0 0.00 0.00 0.00 100 1012.3
20260903211754 93 215 0.0 0.0 0.00 0.00 0.00 100 1012.2
20260903210734 92 215 0.0 0.0 0.00 0.00 0.00 100 1012.3
20260903210454 93 215 0.0 0.0 0.00 0.00 0.00 100 1012.3
20260903205719 93 215 0.0 0.0 0.00 0.00 0.00 100 1012.2
20260903205203 93 215 0.0 0.0 0.00 0.00 0.00 100 1012.4
20260903204646 93 215 0.0 0.0 0.00 0.00 0.00 100 1012.4
20260903204142 93 215 0.0 0.0 0.00 0.00 0.00 100 1012.5
20260903203625 93 215 0.0 0.0 0.00 0.00 0.00 100 1012.6
20260903203127 92 215 0.0 0.0 0.00 0.00 0.00 100 1012.8
20260903202613 92 215 0.0 0.0 0.00 0.00 0.00 100 1012.8
20260903202108 92 215 0.0 0.0 0.00 0.00 0.00 100 1012.9
20260903201601 92 215 0.0 0.0 0.00 0.00 0.00 100 1013.0
20260903201056 92 215 0.0 0.0 0.00 0.00 0.00 100 1013.1
20260903200527 92 215 0.0 0.0 0.00 0.00 0.00 100 1013.1
20260903195959 92 215 0.0 0.0 0.00 0.00 0.00 100 1013.1
20260903195502 92 215 0.0 0.0 0.00 0.00 0.00 100 1013.2
20260903195437 92 215 0.0 1.0 0.00 0.00 0.00 100 1013.1
20260903194445 93 215 0.0 1.0 0.00 0.00 0.00 100 1013.2
20260903193924 92 215 0.0 3.0 0.00 0.00 0.00 100 1013.4
20260903193422 92 215 0.0 2.0 0.00 0.00 0.00 100 1013.4
20260903192909 92 215 0.0 2.0 0.00 0.00 0.00 100 1013.4
20260903192406 0 0.0 0.0 0.00 0.00 0.00 1013.3
20260903191844 0 0.0 0.0 0.00 0.00 0.00 1013.3
20260903191531 0 0.0 0.0 0.00 0.00 0.00 1013.2
20260903190801 0 0.0 0.0 0.00 0.00 0.00 1013.2
20260903190256 0 0.0 0.0 0.00 0.00 0.00 1013.2
20260903185945 0 0.0 0.0 0.00 0.00 0.00 1013.3
20260903185202 0 0.0 0.0 0.00 0.00 0.00 1013.3
20260903184913 0 0.0 0.0 0.00 0.00 0.00 1013.4
20260903184146 0 0.0 0.0 0.00 0.06 0.00 1013.7
20260903183636 0 0.0 0.0 0.00 0.15 0.00 1013.8
20260903183119 0 0.0 0.0 0.00 0.17 0.00 1013.8
20260903182810 0 0.0 0.0 0.00 0.17 0.00 1013.9
20260903182311 0 0.0 0.0 0.00 0.17 0.00 1013.8
20260903181531 0 0.0 0.0 0.00 0.17 0.00 1013.9
20260903181031 0 0.0 0.0 0.00 0.17 0.00 1013.9
20260903180738 0 0.0 0.0 0.00 0.17 0.00 1014.1
20260903175943 0 0.0 0.0 0.00 0.17 0.00 1014.2
20260903175401 0 0.0 0.0 0.00 0.17 0.00 1014.4
20260903174818 0 0.0 0.0 0.00 0.17 0.00 1014.4
20260903174230 0 0.0 0.0 0.00 0.17 0.00 1014.4
20260903173711 0 0.0 0.0 0.00 0.17 0.00 1014.6
20260903173151 0 0.0 0.0 0.00 0.17 0.00 1014.7
20260903172832 0 0.0 0.0 0.00 0.17 0.00 1014.7
20260903172026 0 0.0 0.0 0.00 0.17 0.00 1014.7
20260903171512 0 0.0 0.0 0.00 0.17 0.00 1014.8
20260903171007 0 0.0 0.0 0.00 0.17 0.00 1014.9
20260903170522 0 0.0 0.0 0.00 0.17 0.00 1014.9
20260903165936 0 0.0 0.0 0.00 0.17 0.00 1014.9
20260903165404 0 0.0 0.0 0.00 0.17 0.00 1014.9
20260903165131 0 0.0 0.0 0.00 0.17 0.00 1014.9
20260903164551 0 0.0 0.0 0.00 0.17 0.00 1015.0
20260903163803 0 0.0 0.0 0.00 0.17 0.00 1015.2
20260903163220 0 0.0 0.0 0.00 0.17 0.00 1015.3
20260903162641 0 0.0 0.0 0.00 0.17 0.00 1015.3
20260903162053 0 0.0 0.0 0.00 0.17 0.00 1015.4
20260903161512 0 0.0 0.0 0.00 0.17 0.00 1015.4
20260903160922 0 0.0 0.0 0.00 0.17 0.00 1015.5
20260903160400 0 0.0 0.0 0.00 0.17 0.00 1015.5
20260903155900 0 0.0 0.0 0.00 0.17 0.00 1015.6
20260903155548 0 0.0 0.0 0.00 0.17 0.00 1015.8
20260903154810 0 0.0 0.0 0.00 0.17 0.00 1015.8
20260903154522 0 0.0 0.0 0.00 0.17 0.00 1015.7
20260903153756 0 0.0 0.0 0.00 0.17 0.00 1015.7
20260903153227 0 0.0 0.0 0.00 0.17 0.00 1015.6
20260903152715 0 0.0 0.0 0.00 0.17 0.00 1015.6
20260903152203 0 0.0 0.0 0.00 0.17 0.00 1015.5
20260903151631 0 0.0 0.0 0.00 0.17 0.00 1015.6
20260903151602 0 0.0 0.0 0.00 0.17 0.00 1015.4
20260903150613 0 0.0 0.0 0.00 0.17 0.00 1015.3
20260903150026 0 0.0 0.0 0.00 0.17 0.00 1015.2
20260903145735 0 0.0 0.0 0.00 0.17 0.00 1015.1
20260903144953 0 0.0 0.0 0.00 0.17 0.00 1015.1
20260903144709 0 0.0 0.0 0.00 0.17 0.00 1014.9
20260903143924 0 0.0 0.0 0.00 0.17 0.00 1015.0
20260903143409 0 0.0 0.0 0.00 0.17 0.00 1015.0
20260903143114 0 0.0 0.0 0.00 0.17 0.00 1015.1
20260903142258 0 0.0 0.0 0.00 0.17 0.00 1015.2
20260903141714 0 0.0 0.0 0.00 0.17 0.00 1015.3
20260903141435 0 0.0 0.0 0.00 0.17 0.00 1015.4
20260903140644 0 0.0 0.0 0.00 0.17 0.00 1015.6
20260903140114 0 0.0 0.0 0.00 0.17 0.00 1015.6
20260903135611 0 0.0 0.0 0.00 0.17 0.00 1015.8
20260903135107 0 0.0 0.0 0.00 0.17 0.00 1015.7
20260903134607 0 0.0 0.0 0.00 0.17 0.00 1015.8
20260903134103 0 0.0 0.0 0.00 0.17 0.00 1015.7
20260903133551 0 0.0 0.0 0.00 0.17 0.00 1015.8
20260903133003 0 0.0 0.0 0.00 0.17 0.00 1016.0
20260903132505 0 0.0 0.0 0.00 0.17 0.00 1016.1
20260903131950 0 0.0 0.0 0.00 0.17 0.00 1016.3
20260903131413 0 0.0 0.0 0.00 0.17 0.00 1016.4
20260903130906 0 0.0 0.0 0.00 0.17 0.00 1016.5
20260903130347 0 0.0 0.0 0.00 0.17 0.00 1016.5
20260903125803 0 0.0 0.0 0.00 0.17 0.00 1016.4
20260903125218 0 0.0 0.0 0.00 0.17 0.00 1016.5
20260903124631 0 0.0 0.0 0.00 0.17 0.00 1016.5
20260903124104 0 0.0 0.0 0.00 0.17 0.00 1016.5
20260903123837 0 0.0 0.0 0.00 0.17 0.00 1016.4
20260903123105 0 0.0 0.0 0.00 0.17 0.00 1016.4
20260903122521 0 0.0 0.0 0.00 0.17 0.00 1016.4
20260903122007 0 0.0 0.0 0.00 0.17 0.00 1016.5
20260903121507 0 0.0 0.0 0.00 0.17 0.00 1016.5
20260903121008 0 0.0 0.0 0.00 0.17 0.00 1016.4
20260903120507 0 0.0 0.0 0.00 0.17 0.00 1016.0
20260903120002 0 0.0 0.0 0.00 0.17 0.00 1015.9
20260903115728 0 0.0 0.0 0.00 0.17 0.00 1015.8
20260903114916 0 0.0 0.0 0.00 0.17 0.00 1015.8
20260903114317 0 0.0 0.0 0.00 0.17 0.00 1015.8
20260903113810 0 0.0 0.0 0.00 0.17 0.00 1015.8
20260903113306 0 0.0 0.0 0.00 0.17 0.00 1015.8
20260903112759 0 0.0 0.0 0.00 0.17 0.00 1015.7
20260903112215 0 0.0 0.0 0.00 0.17 0.00 1015.6
20260903111704 0 0.0 0.0 0.00 0.17 0.00 1015.5
20260903111204 0 0.0 0.0 0.00 0.17 0.00 1015.4
20260903110639 0 0.0 0.0 0.00 0.17 0.00 1015.4
20260903110120 0 0.0 0.0 0.00 0.17 0.00 1015.3
20260903105846 0 0.0 0.0 0.00 0.17 0.00 1015.4
20260903105042 0 0.0 0.0 0.00 0.17 0.00 1015.5
20260903104508 0 0.0 0.0 0.00 0.17 0.00 1015.5
20260903103945 0 0.0 0.0 0.00 0.17 0.00 1015.4
20260903103409 0 0.0 0.0 0.00 0.17 0.00 1015.4
20260903102905 0 0.0 0.0 0.00 0.17 0.00 1015.4
20260903102407 75 124 0.0 0.0 0.00 0.17 0.00 100 1015.4
20260903101904 75 124 0.0 0.0 0.00 0.17 0.00 100 1015.2
20260903101354 75 124 0.0 0.0 0.00 0.17 0.00 100 1015.2
20260903100847 75 124 0.0 0.0 0.00 0.17 0.00 100 1015.2
20260903100337 75 124 0.0 0.0 0.00 0.17 0.00 100 1015.1
20260903095820 75 124 0.0 0.0 0.00 0.17 0.00 100 1015.1
20260903095306 75 124 0.0 0.0 0.00 0.17 0.00 100 1015.0
20260903094807 75 124 0.0 0.0 0.00 0.17 0.00 100 1015.0
20260903094747 75 124 0.0 0.0 0.00 0.17 0.00 100 1015.0
20260903093746 75 125 0.0 0.0 0.00 0.17 0.00 100 1015.1
20260903093247 75 125 0.0 0.0 0.00 0.17 0.00 100 1015.1
20260903092747 75 124 0.0 0.0 0.00 0.17 0.00 100 1015.1
20260903092736 75 124 0.0 0.0 0.00 0.17 0.00 100 1014.9
20260903091731 75 124 0.0 0.0 0.00 0.17 0.00 100 1014.8
20260903091217 75 124 0.0 0.0 0.00 0.17 0.00 100 1014.8
20260903090708 75 125 0.0 0.0 0.00 0.17 0.00 100 1014.7
20260903090202 75 124 0.0 0.0 0.00 0.17 0.00 100 1014.8
20260903085922 75 125 0.0 0.0 0.00 0.17 0.00 100 1014.8
20260903085145 75 124 0.0 0.0 0.00 0.17 0.00 100 1014.8
20260903084645 75 124 0.0 0.0 0.00 0.17 0.00 100 1014.9
20260903084132 75 124 0.0 0.0 0.00 0.17 0.00 100 1014.9
20260903083626 75 125 0.0 0.0 0.00 0.17 0.00 100 1015.1
20260903083115 75 124 0.0 0.0 0.00 0.17 0.00 100 1015.0
20260903082613 75 124 0.0 0.0 0.00 0.17 0.00 100 1015.1
20260903082056 75 125 0.0 0.0 0.00 0.17 0.00 100 1015.1
20260903081552 75 124 0.0 0.0 0.00 0.17 0.00 100 1015.1
20260903081054 75 125 0.0 0.0 0.00 0.17 0.00 100 1015.1
20260903080537 75 124 0.0 0.0 0.00 0.17 0.00 100 1015.0
20260903080034 76 125 0.0 0.0 0.00 0.17 0.00 100 1014.9
20260903075515 76 124 0.0 0.0 0.00 0.17 0.00 100 1014.8
20260903075246 76 125 0.0 0.0 0.00 0.17 0.00 100 1014.8
20260903074507 76 124 0.0 0.0 0.00 0.17 0.00 100 1014.8
20260903073958 76 125 0.0 0.0 0.00 0.17 0.00 100 1014.9
20260903073453 76 125 0.0 0.0 0.00 0.17 0.00 100 1014.8
20260903072956 76 124 0.0 0.0 0.00 0.17 0.00 100 1014.8
20260903072453 76 124 0.0 0.0 0.00 0.17 0.00 100 1014.9
20260903071955 76 124 0.0 0.0 0.00 0.17 0.00 100 1014.8
20260903071443 76 125 0.0 0.0 0.00 0.17 0.00 100 1014.9
20260903070926 76 124 0.0 0.0 0.00 0.17 0.00 100 1014.8
20260903070652 76 125 0.0 0.0 0.00 0.17 0.00 100 1014.7
20260903065921 76 124 0.0 0.0 0.00 0.17 0.00 100 1014.7
20260903065422 76 125 0.0 0.0 0.00 0.17 0.00 100 1014.7
20260903064922 76 124 0.0 0.0 0.00 0.17 0.00 100 1014.7
20260903064424 76 125 0.0 0.0 0.00 0.17 0.00 100 1015.0
20260903063923 76 124 0.0 0.0 0.00 0.17 0.00 100 1015.0
20260903063420 76 124 0.0 0.0 0.00 0.17 0.00 100 1015.0
20260903062920 76 125 0.0 0.0 0.00 0.17 0.00 100 1015.0
20260903062420 75 125 0.0 0.0 0.00 0.17 0.00 100 1015.0
20260903061919 75 124 0.0 0.0 0.00 0.17 0.00 100 1015.1
20260903061423 75 124 0.0 0.0 0.00 0.17 0.00 100 1015.1
20260903060915 75 125 0.0 0.0 0.00 0.17 0.00 100 1015.1
20260903060424 75 124 0.0 0.0 0.00 0.17 0.00 100 1015.4
20260903060413 75 125 0.0 0.0 0.00 0.17 0.00 100 1015.2
20260903055417 75 124 0.0 0.0 0.00 0.17 0.00 100 1015.4
20260903054904 75 125 0.0 0.0 0.00 0.17 0.00 100 1015.6
20260903054403 75 125 0.0 0.0 0.00 0.17 0.00 100 1015.6
20260903053838 75 125 0.0 0.0 0.00 0.17 0.00 100 1015.5
20260903053313 75 125 0.0 0.0 0.00 0.17 0.00 100 1015.5
20260903052808 75 125 0.0 0.0 0.00 0.17 0.00 100 1015.3
20260903052300 75 125 0.0 0.0 0.00 0.17 0.00 100 1015.4
20260903051751 75 125 0.0 0.0 0.00 0.17 0.00 100 1015.5
20260903051235 75 125 0.0 0.0 0.00 0.17 0.00 100 1015.7
20260903050728 75 124 0.0 0.0 0.00 0.17 0.00 100 1015.7
20260903050218 75 125 0.0 0.0 0.00 0.17 0.00 100 1015.7
20260903045718 75 124 0.0 0.0 0.00 0.17 0.00 100 1015.7